sensor_id;sensor_type;location;lat;lon;timestamp;P1;durP1;ratioP1;P2;durP2;ratioP2
15933;SDS011;8066;48.776;11.384;2022-07-29T00:00:37;2.63;;;1.98;;
15933;SDS011;8066;48.776;11.384;2022-07-29T00:03:04;2.30;;;1.92;;
15933;SDS011;8066;48.776;11.384;2022-07-29T00:05:32;2.08;;;1.77;;
15933;SDS011;8066;48.776;11.384;2022-07-29T00:07:59;2.58;;;2.03;;
15933;SDS011;8066;48.776;11.384;2022-07-29T00:10:26;2.90;;;2.22;;
15933;SDS011;8066;48.776;11.384;2022-07-29T00:12:53;3.95;;;2.20;;
15933;SDS011;8066;48.776;11.384;2022-07-29T00:15:20;2.90;;;2.20;;
15933;SDS011;8066;48.776;11.384;2022-07-29T00:17:47;4.35;;;2.45;;
15933;SDS011;8066;48.776;11.384;2022-07-29T00:20:14;2.88;;;2.47;;
15933;SDS011;8066;48.776;11.384;2022-07-29T00:22:42;5.28;;;2.40;;
15933;SDS011;8066;48.776;11.384;2022-07-29T00:25:10;2.80;;;1.98;;
15933;SDS011;8066;48.776;11.384;2022-07-29T00:27:39;3.80;;;2.75;;
15933;SDS011;8066;48.776;11.384;2022-07-29T00:30:06;5.63;;;2.33;;
15933;SDS011;8066;48.776;11.384;2022-07-29T00:32:34;2.58;;;2.20;;
15933;SDS011;8066;48.776;11.384;2022-07-29T00:35:01;4.20;;;2.60;;
15933;SDS011;8066;48.776;11.384;2022-07-29T00:37:47;3.70;;;2.60;;
15933;SDS011;8066;48.776;11.384;2022-07-29T00:40:14;2.35;;;2.15;;
15933;SDS011;8066;48.776;11.384;2022-07-29T00:42:41;3.50;;;2.70;;
15933;SDS011;8066;48.776;11.384;2022-07-29T00:45:09;4.03;;;2.63;;
15933;SDS011;8066;48.776;11.384;2022-07-29T00:47:37;3.72;;;2.20;;
15933;SDS011;8066;48.776;11.384;2022-07-29T00:50:05;5.07;;;2.50;;
15933;SDS011;8066;48.776;11.384;2022-07-29T00:52:35;2.20;;;2.00;;
15933;SDS011;8066;48.776;11.384;2022-07-29T00:55:06;3.95;;;2.70;;
15933;SDS011;8066;48.776;11.384;2022-07-29T00:57:36;3.35;;;2.53;;
15933;SDS011;8066;48.776;11.384;2022-07-29T01:00:05;3.10;;;2.13;;
15933;SDS011;8066;48.776;11.384;2022-07-29T01:02:34;3.97;;;2.65;;
15933;SDS011;8066;48.776;11.384;2022-07-29T01:05:02;2.53;;;2.00;;
15933;SDS011;8066;48.776;11.384;2022-07-29T01:07:31;4.10;;;2.45;;
15933;SDS011;8066;48.776;11.384;2022-07-29T01:10:01;4.40;;;2.40;;
15933;SDS011;8066;48.776;11.384;2022-07-29T01:12:31;4.90;;;2.30;;
15933;SDS011;8066;48.776;11.384;2022-07-29T01:15:00;3.30;;;2.30;;
15933;SDS011;8066;48.776;11.384;2022-07-29T01:17:32;3.28;;;2.28;;
15933;SDS011;8066;48.776;11.384;2022-07-29T01:20:10;4.72;;;2.10;;
15933;SDS011;8066;48.776;11.384;2022-07-29T01:23:01;3.53;;;2.40;;
15933;SDS011;8066;48.776;11.384;2022-07-29T01:26:00;2.45;;;2.10;;
15933;SDS011;8066;48.776;11.384;2022-07-29T01:29:06;3.17;;;2.00;;
15933;SDS011;8066;48.776;11.384;2022-07-29T01:31:41;2.75;;;2.30;;
15933;SDS011;8066;48.776;11.384;2022-07-29T01:34:15;4.28;;;2.47;;
15933;SDS011;8066;48.776;11.384;2022-07-29T01:36:48;3.80;;;2.35;;
15933;SDS011;8066;48.776;11.384;2022-07-29T01:39:26;2.47;;;2.28;;
15933;SDS011;8066;48.776;11.384;2022-07-29T01:41:58;3.90;;;2.60;;
15933;SDS011;8066;48.776;11.384;2022-07-29T01:44:37;4.72;;;2.30;;
15933;SDS011;8066;48.776;11.384;2022-07-29T01:47:15;2.67;;;2.30;;
15933;SDS011;8066;48.776;11.384;2022-07-29T01:49:50;3.92;;;2.35;;
15933;SDS011;8066;48.776;11.384;2022-07-29T01:52:23;5.53;;;2.40;;
15933;SDS011;8066;48.776;11.384;2022-07-29T01:55:02;4.47;;;2.80;;
15933;SDS011;8066;48.776;11.384;2022-07-29T01:57:38;3.30;;;2.70;;
15933;SDS011;8066;48.776;11.384;2022-07-29T02:00:12;6.05;;;2.60;;
15933;SDS011;8066;48.776;11.384;2022-07-29T02:02:41;3.92;;;2.60;;
15933;SDS011;8066;48.776;11.384;2022-07-29T02:05:12;4.10;;;2.67;;
15933;SDS011;8066;48.776;11.384;2022-07-29T02:07:44;5.00;;;2.60;;
15933;SDS011;8066;48.776;11.384;2022-07-29T02:10:14;3.50;;;2.33;;
15933;SDS011;8066;48.776;11.384;2022-07-29T02:12:47;2.95;;;2.35;;
15933;SDS011;8066;48.776;11.384;2022-07-29T02:15:17;3.47;;;2.50;;
15933;SDS011;8066;48.776;11.384;2022-07-29T02:17:47;2.95;;;2.20;;
15933;SDS011;8066;48.776;11.384;2022-07-29T02:20:19;3.20;;;2.30;;
15933;SDS011;8066;48.776;11.384;2022-07-29T02:22:48;2.60;;;2.30;;
15933;SDS011;8066;48.776;11.384;2022-07-29T02:25:17;2.90;;;2.20;;
15933;SDS011;8066;48.776;11.384;2022-07-29T02:27:46;2.90;;;2.38;;
15933;SDS011;8066;48.776;11.384;2022-07-29T02:30:17;3.25;;;2.63;;
15933;SDS011;8066;48.776;11.384;2022-07-29T02:32:47;3.70;;;2.60;;
15933;SDS011;8066;48.776;11.384;2022-07-29T02:35:16;3.67;;;2.30;;
15933;SDS011;8066;48.776;11.384;2022-07-29T02:37:46;3.28;;;2.53;;
15933;SDS011;8066;48.776;11.384;2022-07-29T02:40:35;3.70;;;2.70;;
15933;SDS011;8066;48.776;11.384;2022-07-29T02:43:06;3.72;;;2.45;;
15933;SDS011;8066;48.776;11.384;2022-07-29T02:45:37;2.85;;;2.55;;
15933;SDS011;8066;48.776;11.384;2022-07-29T02:48:05;3.22;;;2.65;;
15933;SDS011;8066;48.776;11.384;2022-07-29T02:50:40;4.45;;;3.00;;
15933;SDS011;8066;48.776;11.384;2022-07-29T02:53:17;3.47;;;2.58;;
15933;SDS011;8066;48.776;11.384;2022-07-29T02:55:49;3.67;;;2.50;;
15933;SDS011;8066;48.776;11.384;2022-07-29T02:58:27;3.45;;;2.25;;
15933;SDS011;8066;48.776;11.384;2022-07-29T03:00:59;2.80;;;2.47;;
15933;SDS011;8066;48.776;11.384;2022-07-29T03:03:31;3.97;;;2.50;;
15933;SDS011;8066;48.776;11.384;2022-07-29T03:06:02;3.30;;;2.53;;
15933;SDS011;8066;48.776;11.384;2022-07-29T03:08:32;4.18;;;2.92;;
15933;SDS011;8066;48.776;11.384;2022-07-29T03:11:00;2.95;;;2.55;;
15933;SDS011;8066;48.776;11.384;2022-07-29T03:13:28;3.72;;;2.35;;
15933;SDS011;8066;48.776;11.384;2022-07-29T03:15:56;3.60;;;2.40;;
15933;SDS011;8066;48.776;11.384;2022-07-29T03:18:26;3.53;;;2.50;;
15933;SDS011;8066;48.776;11.384;2022-07-29T03:20:53;3.53;;;2.30;;
15933;SDS011;8066;48.776;11.384;2022-07-29T03:23:21;2.72;;;2.40;;
15933;SDS011;8066;48.776;11.384;2022-07-29T03:25:51;3.42;;;2.20;;
15933;SDS011;8066;48.776;11.384;2022-07-29T03:28:18;2.50;;;2.30;;
15933;SDS011;8066;48.776;11.384;2022-07-29T03:30:45;2.60;;;2.40;;
15933;SDS011;8066;48.776;11.384;2022-07-29T03:33:14;3.90;;;2.13;;
15933;SDS011;8066;48.776;11.384;2022-07-29T03:35:41;3.47;;;2.40;;
15933;SDS011;8066;48.776;11.384;2022-07-29T03:38:08;3.58;;;2.63;;
15933;SDS011;8066;48.776;11.384;2022-07-29T03:40:35;3.17;;;2.38;;
15933;SDS011;8066;48.776;11.384;2022-07-29T03:43:08;3.00;;;2.50;;
15933;SDS011;8066;48.776;11.384;2022-07-29T03:45:37;3.47;;;2.50;;
15933;SDS011;8066;48.776;11.384;2022-07-29T03:48:10;3.80;;;2.35;;
15933;SDS011;8066;48.776;11.384;2022-07-29T03:50:42;3.63;;;2.40;;
15933;SDS011;8066;48.776;11.384;2022-07-29T03:53:10;3.58;;;2.67;;
15933;SDS011;8066;48.776;11.384;2022-07-29T03:55:38;2.92;;;2.55;;
15933;SDS011;8066;48.776;11.384;2022-07-29T03:58:09;2.80;;;2.00;;
15933;SDS011;8066;48.776;11.384;2022-07-29T04:00:38;3.03;;;2.50;;
15933;SDS011;8066;48.776;11.384;2022-07-29T04:03:07;4.28;;;2.58;;
15933;SDS011;8066;48.776;11.384;2022-07-29T04:05:37;3.10;;;2.60;;
15933;SDS011;8066;48.776;11.384;2022-07-29T04:08:04;3.22;;;2.53;;
15933;SDS011;8066;48.776;11.384;2022-07-29T04:10:31;4.00;;;2.67;;
15933;SDS011;8066;48.776;11.384;2022-07-29T04:12:58;4.90;;;2.80;;
15933;SDS011;8066;48.776;11.384;2022-07-29T04:15:26;6.10;;;2.97;;
15933;SDS011;8066;48.776;11.384;2022-07-29T04:17:53;3.53;;;3.03;;
15933;SDS011;8066;48.776;11.384;2022-07-29T04:20:21;4.00;;;3.42;;
15933;SDS011;8066;48.776;11.384;2022-07-29T04:22:49;6.90;;;3.70;;
15933;SDS011;8066;48.776;11.384;2022-07-29T04:25:16;5.95;;;3.75;;
15933;SDS011;8066;48.776;11.384;2022-07-29T04:27:43;3.95;;;3.22;;
15933;SDS011;8066;48.776;11.384;2022-07-29T04:30:23;4.68;;;3.28;;
15933;SDS011;8066;48.776;11.384;2022-07-29T04:32:50;5.25;;;3.05;;
15933;SDS011;8066;48.776;11.384;2022-07-29T04:35:17;3.50;;;3.20;;
15933;SDS011;8066;48.776;11.384;2022-07-29T04:37:44;6.28;;;3.35;;
15933;SDS011;8066;48.776;11.384;2022-07-29T04:40:13;5.28;;;3.35;;
15933;SDS011;8066;48.776;11.384;2022-07-29T04:42:40;6.25;;;3.53;;
15933;SDS011;8066;48.776;11.384;2022-07-29T04:45:07;4.43;;;3.17;;
15933;SDS011;8066;48.776;11.384;2022-07-29T04:47:34;4.57;;;2.90;;
15933;SDS011;8066;48.776;11.384;2022-07-29T04:50:02;4.55;;;3.13;;
15933;SDS011;8066;48.776;11.384;2022-07-29T04:52:30;4.47;;;3.17;;
15933;SDS011;8066;48.776;11.384;2022-07-29T04:54:57;3.70;;;2.70;;
15933;SDS011;8066;48.776;11.384;2022-07-29T04:57:25;4.18;;;2.83;;
15933;SDS011;8066;48.776;11.384;2022-07-29T04:59:52;5.65;;;3.10;;
15933;SDS011;8066;48.776;11.384;2022-07-29T05:02:19;6.38;;;3.20;;
15933;SDS011;8066;48.776;11.384;2022-07-29T05:04:46;4.18;;;3.05;;
15933;SDS011;8066;48.776;11.384;2022-07-29T05:07:13;4.45;;;3.15;;
15933;SDS011;8066;48.776;11.384;2022-07-29T05:09:41;4.00;;;2.88;;
15933;SDS011;8066;48.776;11.384;2022-07-29T05:12:08;4.72;;;2.95;;
15933;SDS011;8066;48.776;11.384;2022-07-29T05:14:37;4.00;;;2.80;;
15933;SDS011;8066;48.776;11.384;2022-07-29T05:17:04;3.67;;;2.70;;
15933;SDS011;8066;48.776;11.384;2022-07-29T05:19:30;5.10;;;2.70;;
15933;SDS011;8066;48.776;11.384;2022-07-29T05:21:57;3.75;;;2.80;;
15933;SDS011;8066;48.776;11.384;2022-07-29T05:24:25;4.70;;;2.67;;
15933;SDS011;8066;48.776;11.384;2022-07-29T05:26:52;4.78;;;2.55;;
15933;SDS011;8066;48.776;11.384;2022-07-29T05:29:18;2.55;;;2.10;;
15933;SDS011;8066;48.776;11.384;2022-07-29T05:31:47;3.08;;;2.30;;
15933;SDS011;8066;48.776;11.384;2022-07-29T05:34:14;2.55;;;2.20;;
15933;SDS011;8066;48.776;11.384;2022-07-29T05:36:40;3.40;;;2.20;;
15933;SDS011;8066;48.776;11.384;2022-07-29T05:39:07;2.88;;;2.30;;
15933;SDS011;8066;48.776;11.384;2022-07-29T05:41:34;3.00;;;2.33;;
15933;SDS011;8066;48.776;11.384;2022-07-29T05:44:01;3.60;;;2.25;;
15933;SDS011;8066;48.776;11.384;2022-07-29T05:46:28;5.88;;;3.08;;
15933;SDS011;8066;48.776;11.384;2022-07-29T05:48:57;2.33;;;2.13;;
15933;SDS011;8066;48.776;11.384;2022-07-29T05:51:23;3.30;;;2.42;;
15933;SDS011;8066;48.776;11.384;2022-07-29T05:53:50;2.53;;;2.17;;
15933;SDS011;8066;48.776;11.384;2022-07-29T05:56:17;3.22;;;2.50;;
15933;SDS011;8066;48.776;11.384;2022-07-29T05:58:44;2.67;;;2.40;;
15933;SDS011;8066;48.776;11.384;2022-07-29T06:01:11;3.67;;;2.40;;
15933;SDS011;8066;48.776;11.384;2022-07-29T06:03:38;3.03;;;2.60;;
15933;SDS011;8066;48.776;11.384;2022-07-29T06:06:07;3.80;;;2.42;;
15933;SDS011;8066;48.776;11.384;2022-07-29T06:08:34;4.15;;;2.40;;
15933;SDS011;8066;48.776;11.384;2022-07-29T06:11:02;3.90;;;2.58;;
15933;SDS011;8066;48.776;11.384;2022-07-29T06:13:30;5.18;;;2.78;;
15933;SDS011;8066;48.776;11.384;2022-07-29T06:15:57;2.72;;;2.22;;
15933;SDS011;8066;48.776;11.384;2022-07-29T06:18:24;3.00;;;2.13;;
15933;SDS011;8066;48.776;11.384;2022-07-29T06:20:51;4.22;;;2.15;;
15933;SDS011;8066;48.776;11.384;2022-07-29T06:23:20;2.92;;;2.35;;
15933;SDS011;8066;48.776;11.384;2022-07-29T06:25:47;3.50;;;2.20;;
15933;SDS011;8066;48.776;11.384;2022-07-29T06:28:14;2.95;;;1.90;;
15933;SDS011;8066;48.776;11.384;2022-07-29T06:30:40;2.70;;;2.10;;
15933;SDS011;8066;48.776;11.384;2022-07-29T06:33:07;3.55;;;2.13;;
15933;SDS011;8066;48.776;11.384;2022-07-29T06:35:34;2.58;;;1.90;;
15933;SDS011;8066;48.776;11.384;2022-07-29T06:38:02;3.38;;;2.30;;
15933;SDS011;8066;48.776;11.384;2022-07-29T06:40:30;2.90;;;2.08;;
15933;SDS011;8066;48.776;11.384;2022-07-29T06:43:15;2.78;;;2.30;;
15933;SDS011;8066;48.776;11.384;2022-07-29T06:45:42;4.35;;;2.42;;
15933;SDS011;8066;48.776;11.384;2022-07-29T06:48:09;3.33;;;2.47;;
15933;SDS011;8066;48.776;11.384;2022-07-29T06:50:36;2.40;;;2.10;;
15933;SDS011;8066;48.776;11.384;2022-07-29T06:53:03;3.50;;;2.08;;
15933;SDS011;8066;48.776;11.384;2022-07-29T06:55:31;2.53;;;2.00;;
15933;SDS011;8066;48.776;11.384;2022-07-29T06:57:58;2.53;;;2.10;;
15933;SDS011;8066;48.776;11.384;2022-07-29T07:00:25;1.92;;;1.83;;
15933;SDS011;8066;48.776;11.384;2022-07-29T07:02:52;2.50;;;2.17;;
15933;SDS011;8066;48.776;11.384;2022-07-29T07:05:19;3.45;;;2.20;;
15933;SDS011;8066;48.776;11.384;2022-07-29T07:07:46;11.15;;;2.85;;
15933;SDS011;8066;48.776;11.384;2022-07-29T07:10:12;4.53;;;2.42;;
15933;SDS011;8066;48.776;11.384;2022-07-29T07:12:41;4.93;;;2.30;;
15933;SDS011;8066;48.776;11.384;2022-07-29T07:15:08;6.97;;;2.80;;
15933;SDS011;8066;48.776;11.384;2022-07-29T07:17:35;2.92;;;2.50;;
15933;SDS011;8066;48.776;11.384;2022-07-29T07:20:03;2.97;;;2.45;;
15933;SDS011;8066;48.776;11.384;2022-07-29T07:22:31;3.47;;;2.25;;
15933;SDS011;8066;48.776;11.384;2022-07-29T07:24:58;2.63;;;2.25;;
15933;SDS011;8066;48.776;11.384;2022-07-29T07:27:25;2.30;;;2.10;;
15933;SDS011;8066;48.776;11.384;2022-07-29T07:29:54;2.10;;;2.00;;
15933;SDS011;8066;48.776;11.384;2022-07-29T07:32:20;3.33;;;2.42;;
15933;SDS011;8066;48.776;11.384;2022-07-29T07:34:47;3.10;;;1.90;;
15933;SDS011;8066;48.776;11.384;2022-07-29T07:37:14;2.53;;;2.10;;
15933;SDS011;8066;48.776;11.384;2022-07-29T07:39:44;1.92;;;1.83;;
15933;SDS011;8066;48.776;11.384;2022-07-29T07:42:10;2.60;;;2.10;;
15933;SDS011;8066;48.776;11.384;2022-07-29T07:44:38;3.70;;;2.80;;
15933;SDS011;8066;48.776;11.384;2022-07-29T07:47:06;2.35;;;2.15;;
15933;SDS011;8066;48.776;11.384;2022-07-29T07:49:33;2.50;;;2.30;;
15933;SDS011;8066;48.776;11.384;2022-07-29T07:52:00;2.17;;;2.08;;
15933;SDS011;8066;48.776;11.384;2022-07-29T07:54:26;2.40;;;2.20;;
15933;SDS011;8066;48.776;11.384;2022-07-29T07:56:53;2.58;;;2.13;;
15933;SDS011;8066;48.776;11.384;2022-07-29T07:59:20;2.17;;;2.08;;
15933;SDS011;8066;48.776;11.384;2022-07-29T08:01:47;2.53;;;2.28;;
15933;SDS011;8066;48.776;11.384;2022-07-29T08:04:16;2.30;;;2.10;;
15933;SDS011;8066;48.776;11.384;2022-07-29T08:06:42;2.70;;;2.10;;
15933;SDS011;8066;48.776;11.384;2022-07-29T08:09:09;2.75;;;2.38;;
15933;SDS011;8066;48.776;11.384;2022-07-29T08:11:36;2.70;;;2.40;;
15933;SDS011;8066;48.776;11.384;2022-07-29T08:14:03;3.95;;;2.30;;
15933;SDS011;8066;48.776;11.384;2022-07-29T08:16:30;2.60;;;2.45;;
15933;SDS011;8066;48.776;11.384;2022-07-29T08:18:57;2.65;;;2.45;;
15933;SDS011;8066;48.776;11.384;2022-07-29T08:21:25;2.58;;;2.38;;
15933;SDS011;8066;48.776;11.384;2022-07-29T08:23:52;2.65;;;2.45;;
15933;SDS011;8066;48.776;11.384;2022-07-29T08:26:39;3.05;;;2.60;;
15933;SDS011;8066;48.776;11.384;2022-07-29T08:29:07;2.75;;;2.55;;
15933;SDS011;8066;48.776;11.384;2022-07-29T08:31:34;3.13;;;2.83;;
15933;SDS011;8066;48.776;11.384;2022-07-29T08:34:01;3.13;;;2.92;;
15933;SDS011;8066;48.776;11.384;2022-07-29T08:36:30;3.33;;;3.03;;
15933;SDS011;8066;48.776;11.384;2022-07-29T08:38:59;2.67;;;2.58;;
15933;SDS011;8066;48.776;11.384;2022-07-29T08:41:27;3.10;;;2.90;;
15933;SDS011;8066;48.776;11.384;2022-07-29T08:43:54;3.53;;;3.20;;
15933;SDS011;8066;48.776;11.384;2022-07-29T08:46:21;4.40;;;3.33;;
15933;SDS011;8066;48.776;11.384;2022-07-29T08:48:48;3.50;;;3.30;;
15933;SDS011;8066;48.776;11.384;2022-07-29T08:51:16;3.28;;;3.08;;
15933;SDS011;8066;48.776;11.384;2022-07-29T08:53:47;3.88;;;3.58;;
15933;SDS011;8066;48.776;11.384;2022-07-29T08:56:16;4.10;;;3.70;;
15933;SDS011;8066;48.776;11.384;2022-07-29T08:58:44;4.13;;;3.83;;
15933;SDS011;8066;48.776;11.384;2022-07-29T09:01:14;4.20;;;3.90;;
15933;SDS011;8066;48.776;11.384;2022-07-29T09:03:48;3.78;;;3.58;;
15933;SDS011;8066;48.776;11.384;2022-07-29T09:06:17;4.07;;;3.78;;
15933;SDS011;8066;48.776;11.384;2022-07-29T09:08:48;4.03;;;3.80;;
15933;SDS011;8066;48.776;11.384;2022-07-29T09:11:15;4.15;;;3.78;;
15933;SDS011;8066;48.776;11.384;2022-07-29T09:13:42;3.67;;;3.47;;
15933;SDS011;8066;48.776;11.384;2022-07-29T09:16:09;4.40;;;3.28;;
15933;SDS011;8066;48.776;11.384;2022-07-29T09:18:37;6.22;;;2.95;;
15933;SDS011;8066;48.776;11.384;2022-07-29T09:21:09;2.95;;;2.65;;
15933;SDS011;8066;48.776;11.384;2022-07-29T09:24:01;2.70;;;2.50;;
15933;SDS011;8066;48.776;11.384;2022-07-29T09:26:36;2.50;;;2.30;;
15933;SDS011;8066;48.776;11.384;2022-07-29T09:29:09;2.65;;;2.45;;
15933;SDS011;8066;48.776;11.384;2022-07-29T09:31:39;2.42;;;2.22;;
15933;SDS011;8066;48.776;11.384;2022-07-29T09:34:08;2.45;;;2.15;;
15933;SDS011;8066;48.776;11.384;2022-07-29T09:36:39;2.70;;;2.50;;
15933;SDS011;8066;48.776;11.384;2022-07-29T09:39:09;2.40;;;2.20;;
15933;SDS011;8066;48.776;11.384;2022-07-29T09:41:44;2.63;;;2.30;;
15933;SDS011;8066;48.776;11.384;2022-07-29T09:44:14;3.42;;;2.25;;
15933;SDS011;8066;48.776;11.384;2022-07-29T09:46:55;3.03;;;2.28;;
15933;SDS011;8066;48.776;11.384;2022-07-29T09:49:24;2.40;;;2.20;;
15933;SDS011;8066;48.776;11.384;2022-07-29T09:52:04;2.38;;;2.17;;
15933;SDS011;8066;48.776;11.384;2022-07-29T09:54:35;2.60;;;2.38;;
15933;SDS011;8066;48.776;11.384;2022-07-29T09:57:03;2.58;;;2.25;;
15933;SDS011;8066;48.776;11.384;2022-07-29T09:59:32;1.92;;;1.83;;
15933;SDS011;8066;48.776;11.384;2022-07-29T10:01:59;2.83;;;2.03;;
15933;SDS011;8066;48.776;11.384;2022-07-29T10:04:36;2.30;;;2.10;;
15933;SDS011;8066;48.776;11.384;2022-07-29T10:07:05;2.25;;;2.03;;
15933;SDS011;8066;48.776;11.384;2022-07-29T10:09:33;2.00;;;1.90;;
15933;SDS011;8066;48.776;11.384;2022-07-29T10:12:02;2.47;;;2.15;;
15933;SDS011;8066;48.776;11.384;2022-07-29T10:14:31;2.03;;;1.92;;
15933;SDS011;8066;48.776;11.384;2022-07-29T10:16:59;2.22;;;2.03;;
15933;SDS011;8066;48.776;11.384;2022-07-29T10:19:28;2.75;;;2.20;;
15933;SDS011;8066;48.776;11.384;2022-07-29T10:21:56;2.45;;;1.90;;
15933;SDS011;8066;48.776;11.384;2022-07-29T10:24:24;2.20;;;2.00;;
15933;SDS011;8066;48.776;11.384;2022-07-29T10:26:55;2.25;;;2.05;;
15933;SDS011;8066;48.776;11.384;2022-07-29T10:29:25;2.42;;;2.22;;
15933;SDS011;8066;48.776;11.384;2022-07-29T10:32:00;2.10;;;2.00;;
15933;SDS011;8066;48.776;11.384;2022-07-29T10:38:06;2.50;;;2.30;;
15933;SDS011;8066;48.776;11.384;2022-07-29T10:41:12;2.53;;;2.33;;
15933;SDS011;8066;48.776;11.384;2022-07-29T10:44:02;2.53;;;2.25;;
15933;SDS011;8066;48.776;11.384;2022-07-29T10:46:34;2.22;;;2.13;;
15933;SDS011;8066;48.776;11.384;2022-07-29T10:49:06;2.92;;;2.70;;
15933;SDS011;8066;48.776;11.384;2022-07-29T10:51:52;2.85;;;2.65;;
15933;SDS011;8066;48.776;11.384;2022-07-29T10:54:36;2.80;;;2.60;;
15933;SDS011;8066;48.776;11.384;2022-07-29T10:57:13;2.90;;;2.60;;
15933;SDS011;8066;48.776;11.384;2022-07-29T10:59:48;3.33;;;3.10;;
15933;SDS011;8066;48.776;11.384;2022-07-29T11:05:13;3.40;;;3.10;;
15933;SDS011;8066;48.776;11.384;2022-07-29T11:10:51;3.50;;;3.30;;
15933;SDS011;8066;48.776;11.384;2022-07-29T11:13:56;3.78;;;3.47;;
15933;SDS011;8066;48.776;11.384;2022-07-29T11:16:24;3.50;;;3.30;;
15933;SDS011;8066;48.776;11.384;2022-07-29T11:21:49;2.88;;;2.70;;
15933;SDS011;8066;48.776;11.384;2022-07-29T11:24:18;3.30;;;3.10;;
15933;SDS011;8066;48.776;11.384;2022-07-29T11:27:08;3.08;;;2.78;;
15933;SDS011;8066;48.776;11.384;2022-07-29T11:29:47;2.47;;;2.35;;
15933;SDS011;8066;48.776;11.384;2022-07-29T11:32:21;2.70;;;2.50;;
15933;SDS011;8066;48.776;11.384;2022-07-29T11:35:10;2.42;;;2.33;;
15933;SDS011;8066;48.776;11.384;2022-07-29T11:37:40;3.50;;;2.60;;
15933;SDS011;8066;48.776;11.384;2022-07-29T11:40:10;2.55;;;2.45;;
15933;SDS011;8066;48.776;11.384;2022-07-29T11:42:47;2.80;;;2.60;;
15933;SDS011;8066;48.776;11.384;2022-07-29T11:45:17;1.95;;;1.85;;
15933;SDS011;8066;48.776;11.384;2022-07-29T11:47:54;2.83;;;1.92;;
15933;SDS011;8066;48.776;11.384;2022-07-29T11:50:30;1.95;;;1.85;;
15933;SDS011;8066;48.776;11.384;2022-07-29T11:53:00;2.63;;;2.42;;
15933;SDS011;8066;48.776;11.384;2022-07-29T11:55:29;2.65;;;2.50;;
15933;SDS011;8066;48.776;11.384;2022-07-29T11:58:00;2.70;;;2.50;;
15933;SDS011;8066;48.776;11.384;2022-07-29T12:00:29;2.60;;;2.40;;
15933;SDS011;8066;48.776;11.384;2022-07-29T12:03:01;2.17;;;2.08;;
15933;SDS011;8066;48.776;11.384;2022-07-29T12:05:33;2.40;;;2.30;;
15933;SDS011;8066;48.776;11.384;2022-07-29T12:08:10;2.70;;;2.50;;
15933;SDS011;8066;48.776;11.384;2022-07-29T12:10:39;2.85;;;2.70;;
15933;SDS011;8066;48.776;11.384;2022-07-29T12:13:08;2.97;;;2.70;;
15933;SDS011;8066;48.776;11.384;2022-07-29T12:15:36;3.03;;;2.83;;
15933;SDS011;8066;48.776;11.384;2022-07-29T12:18:11;3.83;;;3.08;;
15933;SDS011;8066;48.776;11.384;2022-07-29T12:20:40;3.08;;;2.88;;
15933;SDS011;8066;48.776;11.384;2022-07-29T12:23:09;3.25;;;3.05;;
15933;SDS011;8066;48.776;11.384;2022-07-29T12:25:38;3.25;;;2.90;;
15933;SDS011;8066;48.776;11.384;2022-07-29T12:28:08;2.88;;;2.67;;
15933;SDS011;8066;48.776;11.384;2022-07-29T12:30:39;2.72;;;2.53;;
15933;SDS011;8066;48.776;11.384;2022-07-29T12:33:11;2.80;;;2.35;;
15933;SDS011;8066;48.776;11.384;2022-07-29T12:35:42;2.50;;;2.20;;
15933;SDS011;8066;48.776;11.384;2022-07-29T12:38:13;2.10;;;2.00;;
15933;SDS011;8066;48.776;11.384;2022-07-29T12:40:41;2.35;;;2.13;;
15933;SDS011;8066;48.776;11.384;2022-07-29T12:43:11;2.17;;;1.83;;
15933;SDS011;8066;48.776;11.384;2022-07-29T12:45:41;2.08;;;1.98;;
15933;SDS011;8066;48.776;11.384;2022-07-29T12:48:12;2.28;;;2.08;;
15933;SDS011;8066;48.776;11.384;2022-07-29T12:50:53;2.00;;;1.90;;
15933;SDS011;8066;48.776;11.384;2022-07-29T12:53:23;2.00;;;1.90;;
15933;SDS011;8066;48.776;11.384;2022-07-29T12:55:52;4.18;;;2.05;;
15933;SDS011;8066;48.776;11.384;2022-07-29T12:58:31;4.78;;;2.50;;
15933;SDS011;8066;48.776;11.384;2022-07-29T13:01:03;2.65;;;2.13;;
15933;SDS011;8066;48.776;11.384;2022-07-29T13:03:45;3.83;;;2.17;;
15933;SDS011;8066;48.776;11.384;2022-07-29T13:06:31;3.53;;;2.38;;
15933;SDS011;8066;48.776;11.384;2022-07-29T13:09:02;3.13;;;2.28;;
15933;SDS011;8066;48.776;11.384;2022-07-29T13:11:32;4.45;;;2.20;;
15933;SDS011;8066;48.776;11.384;2022-07-29T13:14:00;2.63;;;2.25;;
15933;SDS011;8066;48.776;11.384;2022-07-29T13:16:27;3.05;;;2.40;;
15933;SDS011;8066;48.776;11.384;2022-07-29T13:19:09;2.70;;;2.50;;
15933;SDS011;8066;48.776;11.384;2022-07-29T13:21:38;2.97;;;2.38;;
15933;SDS011;8066;48.776;11.384;2022-07-29T13:24:06;2.72;;;2.53;;
15933;SDS011;8066;48.776;11.384;2022-07-29T13:26:34;3.63;;;2.53;;
15933;SDS011;8066;48.776;11.384;2022-07-29T13:29:05;8.77;;;2.40;;
15933;SDS011;8066;48.776;11.384;2022-07-29T13:31:32;5.47;;;2.70;;
15933;SDS011;8066;48.776;11.384;2022-07-29T13:33:59;3.47;;;2.60;;
15933;SDS011;8066;48.776;11.384;2022-07-29T13:36:27;2.78;;;2.33;;
15933;SDS011;8066;48.776;11.384;2022-07-29T13:38:54;3.78;;;2.63;;
15933;SDS011;8066;48.776;11.384;2022-07-29T13:41:21;3.55;;;2.40;;
15933;SDS011;8066;48.776;11.384;2022-07-29T13:43:48;2.67;;;2.47;;
15933;SDS011;8066;48.776;11.384;2022-07-29T13:46:15;5.97;;;2.63;;
15933;SDS011;8066;48.776;11.384;2022-07-29T13:48:42;2.90;;;2.40;;
15933;SDS011;8066;48.776;11.384;2022-07-29T13:51:09;2.40;;;2.05;;
15933;SDS011;8066;48.776;11.384;2022-07-29T13:53:37;3.38;;;2.20;;
15933;SDS011;8066;48.776;11.384;2022-07-29T13:56:04;4.45;;;2.65;;
15933;SDS011;8066;48.776;11.384;2022-07-29T13:58:31;2.90;;;2.50;;
15933;SDS011;8066;48.776;11.384;2022-07-29T14:00:58;2.70;;;2.50;;
15933;SDS011;8066;48.776;11.384;2022-07-29T14:03:25;3.00;;;2.55;;
15933;SDS011;8066;48.776;11.384;2022-07-29T14:05:52;2.65;;;2.45;;
15933;SDS011;8066;48.776;11.384;2022-07-29T14:08:19;2.60;;;2.40;;
15933;SDS011;8066;48.776;11.384;2022-07-29T14:10:47;4.03;;;2.60;;
15933;SDS011;8066;48.776;11.384;2022-07-29T14:13:14;2.78;;;2.28;;
15933;SDS011;8066;48.776;11.384;2022-07-29T14:15:41;2.38;;;2.17;;
15933;SDS011;8066;48.776;11.384;2022-07-29T14:18:08;5.65;;;3.03;;
15933;SDS011;8066;48.776;11.384;2022-07-29T14:20:35;3.28;;;2.97;;
15933;SDS011;8066;48.776;11.384;2022-07-29T14:23:02;3.35;;;2.35;;
15933;SDS011;8066;48.776;11.384;2022-07-29T14:25:29;2.58;;;2.22;;
15933;SDS011;8066;48.776;11.384;2022-07-29T14:27:57;2.70;;;2.33;;
15933;SDS011;8066;48.776;11.384;2022-07-29T14:30:24;3.78;;;2.58;;
15933;SDS011;8066;48.776;11.384;2022-07-29T14:32:51;4.40;;;2.50;;
15933;SDS011;8066;48.776;11.384;2022-07-29T14:35:18;2.78;;;2.38;;
15933;SDS011;8066;48.776;11.384;2022-07-29T14:37:45;4.05;;;2.50;;
15933;SDS011;8066;48.776;11.384;2022-07-29T14:40:12;2.92;;;2.45;;
15933;SDS011;8066;48.776;11.384;2022-07-29T14:42:39;4.00;;;2.60;;
15933;SDS011;8066;48.776;11.384;2022-07-29T14:45:08;4.18;;;2.80;;
15933;SDS011;8066;48.776;11.384;2022-07-29T14:47:37;3.45;;;2.50;;
15933;SDS011;8066;48.776;11.384;2022-07-29T14:50:05;4.55;;;2.75;;
15933;SDS011;8066;48.776;11.384;2022-07-29T14:52:33;2.60;;;2.40;;
15933;SDS011;8066;48.776;11.384;2022-07-29T14:55:00;4.97;;;2.42;;
15933;SDS011;8066;48.776;11.384;2022-07-29T14:57:28;3.97;;;2.53;;
15933;SDS011;8066;48.776;11.384;2022-07-29T14:59:54;2.85;;;2.38;;
15933;SDS011;8066;48.776;11.384;2022-07-29T15:02:23;4.20;;;2.42;;
15933;SDS011;8066;48.776;11.384;2022-07-29T15:04:50;3.42;;;2.38;;
15933;SDS011;8066;48.776;11.384;2022-07-29T15:07:17;5.88;;;2.58;;
15933;SDS011;8066;48.776;11.384;2022-07-29T15:09:44;3.03;;;2.40;;
15933;SDS011;8066;48.776;11.384;2022-07-29T15:12:11;2.30;;;2.10;;
15933;SDS011;8066;48.776;11.384;2022-07-29T15:14:38;3.55;;;2.28;;
15933;SDS011;8066;48.776;11.384;2022-07-29T15:17:05;3.13;;;2.33;;